createdAt,value
2022-09-04T00:00:52.576Z,232.54
2022-09-04T00:01:52.668Z,232.38
2022-09-04T00:02:52.734Z,231.57
2022-09-04T00:03:52.981Z,231.08
2022-09-04T00:04:53.037Z,231.57
2022-09-04T00:05:52.983Z,232.22
2022-09-04T00:06:53.100Z,230.28
2022-09-04T00:07:53.164Z,233.37
2022-09-04T00:08:53.247Z,233.04
2022-09-04T00:09:53.323Z,232.87
2022-09-04T00:10:53.396Z,232.38
2022-09-04T00:11:53.496Z,231.73
2022-09-04T00:12:53.570Z,230.44
2022-09-04T00:13:53.697Z,230.12
2022-09-04T00:14:53.738Z,228.37
2022-09-04T00:15:53.811Z,228.37
2022-09-04T00:16:53.925Z,229.16
2022-09-04T00:17:53.963Z,227.74
2022-09-04T00:18:54.076Z,228.05
2022-09-04T00:19:54.165Z,226.80
2022-09-04T00:20:54.236Z,227.90
2022-09-04T00:21:54.308Z,228.84
2022-09-04T00:22:54.356Z,229.32
2022-09-04T00:23:54.463Z,229.64
2022-09-04T00:24:54.507Z,229.16
2022-09-04T00:25:54.587Z,231.08
2022-09-04T00:26:54.646Z,230.60
2022-09-04T00:27:54.727Z,231.73
2022-09-04T00:28:54.839Z,231.24
2022-09-04T00:29:54.898Z,228.68
2022-09-04T00:30:55.032Z,229.32
2022-09-04T00:31:55.014Z,229.64
2022-09-04T00:32:55.093Z,231.08
2022-09-04T00:33:55.181Z,230.44
2022-09-04T00:34:55.295Z,230.60
2022-09-04T00:35:55.353Z,230.28
2022-09-04T00:36:55.428Z,229.96
2022-09-04T00:37:55.519Z,230.60
2022-09-04T00:38:55.621Z,229.32
2022-09-04T00:39:55.748Z,232.38
2022-09-04T00:40:55.773Z,230.28
2022-09-04T00:41:55.820Z,231.73
2022-09-04T00:42:55.949Z,230.76
2022-09-04T00:43:55.991Z,231.08
2022-09-04T00:44:56.052Z,230.44
2022-09-04T00:45:56.169Z,231.40
2022-09-04T00:46:56.196Z,231.24
2022-09-04T00:47:56.272Z,229.00
2022-09-04T00:48:56.369Z,232.22
2022-09-04T00:49:56.439Z,229.80
2022-09-04T00:50:56.492Z,230.76
2022-09-04T00:51:56.571Z,230.60
2022-09-04T00:52:56.685Z,231.57
2022-09-04T00:53:56.761Z,230.28
2022-09-04T00:54:56.829Z,229.48
2022-09-04T00:55:56.893Z,229.00
2022-09-04T00:56:56.983Z,231.40
2022-09-04T00:57:57.066Z,228.68
2022-09-04T00:58:57.188Z,228.21
2022-09-04T00:59:57.251Z,229.80
2022-09-04T01:00:57.417Z,230.12
2022-09-04T01:01:57.569Z,231.08
2022-09-04T01:02:57.501Z,226.96
2022-09-04T01:03:58.453Z,229.16
2022-09-04T01:04:57.666Z,229.64
2022-09-04T01:05:57.726Z,231.89
2022-09-04T01:06:57.814Z,231.89
2022-09-04T01:07:57.884Z,231.24
2022-09-04T01:08:58.000Z,230.44
2022-09-04T01:09:58.039Z,232.71
2022-09-04T01:10:58.124Z,231.73
2022-09-04T01:11:58.190Z,231.24
2022-09-04T01:12:58.268Z,231.24
2022-09-04T01:13:58.406Z,229.00
2022-09-04T01:14:58.452Z,232.38
2022-09-04T01:15:58.528Z,230.28
2022-09-04T01:16:58.605Z,229.96
2022-09-04T01:17:58.703Z,226.96
2022-09-04T01:18:58.815Z,229.48
2022-09-04T01:19:58.863Z,228.68
2022-09-04T01:20:58.946Z,227.58
2022-09-04T01:21:59.019Z,226.80
2022-09-04T01:22:59.116Z,227.11
2022-09-04T01:23:59.195Z,223.43
2022-09-04T01:24:59.284Z,223.73
2022-09-04T01:25:59.343Z,223.13
2022-09-04T01:26:59.429Z,223.58
2022-09-04T01:27:59.498Z,222.53
2022-09-04T01:28:59.582Z,222.68
2022-09-04T01:29:59.629Z,222.08
2022-09-04T01:30:59.726Z,221.18
2022-09-04T01:31:59.857Z,220.30
2022-09-04T01:32:59.883Z,217.98
2022-09-04T01:33:59.969Z,218.70
2022-09-04T01:35:00.032Z,218.41
2022-09-04T01:36:00.075Z,219.71
2022-09-04T01:37:00.177Z,217.12
2022-09-04T01:38:00.248Z,216.83
2022-09-04T01:39:00.299Z,218.26
2022-09-04T01:40:00.482Z,216.12
2022-09-04T01:41:00.477Z,216.41
2022-09-04T01:42:00.531Z,217.40
2022-09-04T01:43:00.643Z,216.27
2022-09-04T01:44:00.717Z,216.69
2022-09-04T01:45:00.790Z,216.69
2022-09-04T01:46:00.944Z,215.98
2022-09-04T01:47:00.954Z,216.41
2022-09-04T01:48:01.061Z,216.69
2022-09-04T01:49:01.111Z,216.55
2022-09-04T01:50:01.178Z,215.28
2022-09-04T01:51:01.236Z,215.28
2022-09-04T01:52:01.318Z,217.26
2022-09-04T01:53:01.419Z,217.12
2022-09-04T01:54:01.503Z,216.41
2022-09-04T01:55:01.561Z,217.40
2022-09-04T01:56:01.645Z,215.00
2022-09-04T01:57:01.719Z,216.27
2022-09-04T01:58:01.770Z,217.12
2022-09-04T01:59:01.855Z,216.27
2022-09-04T02:00:01.991Z,215.42
2022-09-04T02:01:02.078Z,216.27
2022-09-04T02:02:02.176Z,215.42
2022-09-04T02:03:02.212Z,217.40
2022-09-04T02:04:02.297Z,217.12
2022-09-04T02:05:07.757Z,217.98
2022-09-04T02:06:02.445Z,217.26
2022-09-04T02:07:02.524Z,217.55
2022-09-04T02:08:02.631Z,217.69
2022-09-04T02:09:02.689Z,218.70
2022-09-04T02:10:02.770Z,216.98
2022-09-04T02:11:02.859Z,216.98
2022-09-04T02:12:02.934Z,215.28
2022-09-04T02:13:03.027Z,214.86
2022-09-04T02:14:03.084Z,215.14
2022-09-04T02:15:03.174Z,215.56
2022-09-04T02:16:03.280Z,215.98
2022-09-04T02:17:03.339Z,214.58
2022-09-04T02:18:03.425Z,216.12
2022-09-04T02:19:03.540Z,214.58
2022-09-04T02:20:03.624Z,214.72
2022-09-04T02:21:03.655Z,215.28
2022-09-04T02:22:03.776Z,216.41
2022-09-04T02:23:03.828Z,215.84
2022-09-04T02:24:03.900Z,215.14
2022-09-04T02:25:03.984Z,216.27
2022-09-04T02:26:04.093Z,214.86
2022-09-04T02:27:04.154Z,215.98
2022-09-04T02:28:04.217Z,216.27
2022-09-04T02:29:04.352Z,216.69
2022-09-04T02:30:04.370Z,217.12
2022-09-04T02:31:04.621Z,218.12
2022-09-04T02:32:05.263Z,214.02
2022-09-04T02:33:04.639Z,217.83
2022-09-04T02:34:04.707Z,217.69
2022-09-04T02:35:04.806Z,217.40
2022-09-04T02:36:04.891Z,217.26
2022-09-04T02:37:04.939Z,216.41
2022-09-04T02:38:05.021Z,219.28
2022-09-04T02:39:05.106Z,219.42
2022-09-04T02:40:05.335Z,219.28
2022-09-04T02:41:05.246Z,219.57
2022-09-04T02:42:05.370Z,220.15
2022-09-04T02:43:05.497Z,220.30
2022-09-04T02:44:05.516Z,221.18
2022-09-04T02:45:05.584Z,221.48
2022-09-04T02:46:05.669Z,222.08
2022-09-04T02:47:05.806Z,222.83
2022-09-04T02:48:05.872Z,224.64
2022-09-04T02:49:05.916Z,222.98
2022-09-04T02:50:05.996Z,223.43
2022-09-04T02:51:06.076Z,222.98
2022-09-04T02:52:06.120Z,225.26
2022-09-04T02:53:06.219Z,226.18
2022-09-04T02:54:06.270Z,225.87
2022-09-04T02:55:06.358Z,225.10
2022-09-04T02:56:06.434Z,225.87
2022-09-04T02:57:06.550Z,225.87
2022-09-04T02:58:06.601Z,225.56
2022-09-04T02:59:06.690Z,226.49
2022-09-04T03:00:06.779Z,227.90
2022-09-04T03:01:06.957Z,226.96
2022-09-04T03:02:06.964Z,227.74
2022-09-04T03:03:07.059Z,226.33
2022-09-04T03:04:07.111Z,226.18
2022-09-04T03:05:07.257Z,228.37
2022-09-04T03:06:07.279Z,226.80
2022-09-04T03:07:07.358Z,226.96
2022-09-04T03:08:07.456Z,227.42
2022-09-04T03:09:07.556Z,226.65
2022-09-04T03:10:07.641Z,227.42
2022-09-04T03:11:07.723Z,224.64
2022-09-04T03:12:07.779Z,224.49
2022-09-04T03:13:07.874Z,227.27
2022-09-04T03:14:07.937Z,224.03
2022-09-04T03:15:08.028Z,228.21
2022-09-04T03:16:08.150Z,226.18
2022-09-04T03:17:08.193Z,226.33
2022-09-04T03:18:08.281Z,226.18
2022-09-04T03:19:08.497Z,226.33
2022-09-04T03:20:08.438Z,227.74
2022-09-04T03:21:08.540Z,228.05
2022-09-04T03:22:08.587Z,226.80
2022-09-04T03:23:08.695Z,228.37
2022-09-04T03:24:08.738Z,228.37
2022-09-04T03:25:08.822Z,228.52
2022-09-04T03:26:08.902Z,231.08
2022-09-04T03:27:09.013Z,230.76
2022-09-04T03:28:09.110Z,227.11
2022-09-04T03:29:09.173Z,231.24
2022-09-04T03:30:09.244Z,231.57
2022-09-04T03:31:09.374Z,231.08
2022-09-04T03:32:15.982Z,232.22
2022-09-04T03:33:09.506Z,232.71
2022-09-04T03:34:09.585Z,230.44
2022-09-04T03:35:09.681Z,231.24
2022-09-04T03:36:09.732Z,235.19
2022-09-04T03:37:09.846Z,232.54
2022-09-04T03:38:09.907Z,233.37
2022-09-04T03:39:09.994Z,233.86
2022-09-04T03:40:10.058Z,233.20
2022-09-04T03:41:10.163Z,235.02
2022-09-04T03:42:10.242Z,233.37
2022-09-04T03:43:10.327Z,232.54
2022-09-04T03:44:10.390Z,234.03
2022-09-04T03:45:10.474Z,231.57
2022-09-04T03:46:10.639Z,228.37
2022-09-04T03:47:10.607Z,232.05
2022-09-04T03:48:10.763Z,233.53
2022-09-04T03:49:10.771Z,230.12
2022-09-04T03:50:10.857Z,233.37
2022-09-04T03:51:10.947Z,234.52
2022-09-04T03:52:11.038Z,231.89
2022-09-04T03:53:11.153Z,233.04
2022-09-04T03:54:11.181Z,233.37
2022-09-04T03:55:11.289Z,234.52
2022-09-04T03:56:11.332Z,233.53
2022-09-04T03:57:11.432Z,236.37
2022-09-04T03:58:11.503Z,232.05
2022-09-04T03:59:11.570Z,235.53
2022-09-04T04:00:11.620Z,235.69
2022-09-04T04:01:11.739Z,233.86
2022-09-04T04:02:11.768Z,232.38
2022-09-04T04:03:11.919Z,235.19
2022-09-04T04:04:11.910Z,233.20
2022-09-04T04:05:12.016Z,236.71
2022-09-04T04:06:12.073Z,231.08
2022-09-04T04:07:12.165Z,234.69
2022-09-04T04:08:12.275Z,234.19
2022-09-04T04:09:12.335Z,234.36
2022-09-04T04:10:12.414Z,233.70
2022-09-04T04:11:12.502Z,233.20
2022-09-04T04:12:12.583Z,234.52
2022-09-04T04:13:12.694Z,231.73
2022-09-04T04:14:12.795Z,231.08
2022-09-04T04:15:12.898Z,233.20
2022-09-04T04:16:12.957Z,234.36
2022-09-04T04:17:14.849Z,235.86
2022-09-04T04:18:13.029Z,234.03
2022-09-04T04:19:13.096Z,236.37
2022-09-04T04:20:13.165Z,237.73
2022-09-04T04:21:13.314Z,235.86
2022-09-04T04:22:13.368Z,239.62
2022-09-04T04:23:13.424Z,237.73
2022-09-04T04:24:13.512Z,234.69
2022-09-04T04:25:13.606Z,236.88
2022-09-04T04:26:13.679Z,236.03
2022-09-04T04:27:13.789Z,236.03
2022-09-04T04:28:13.810Z,240.15
2022-09-04T04:29:13.899Z,239.97
2022-09-04T04:30:13.975Z,238.41
2022-09-04T04:31:14.082Z,240.85
2022-09-04T04:32:14.136Z,242.79
2022-09-04T04:33:14.197Z,238.93
2022-09-04T04:34:14.288Z,239.97
2022-09-04T04:35:14.361Z,239.10
2022-09-04T04:36:14.468Z,236.88
2022-09-04T04:37:14.535Z,238.41
2022-09-04T04:38:14.639Z,235.86
2022-09-04T04:39:14.684Z,238.24
2022-09-04T04:40:14.799Z,238.07
2022-09-04T04:41:14.816Z,239.80
2022-09-04T04:42:14.930Z,236.71
2022-09-04T04:43:14.983Z,235.69
2022-09-04T04:44:15.070Z,235.86
2022-09-04T04:45:15.169Z,236.54
2022-09-04T04:46:15.258Z,235.69
2022-09-04T04:47:15.396Z,239.28
2022-09-04T04:48:15.405Z,237.73
2022-09-04T04:49:15.460Z,235.02
2022-09-04T04:50:15.543Z,235.69
2022-09-04T04:51:15.593Z,237.39
2022-09-04T04:52:15.699Z,235.53
2022-09-04T04:53:15.758Z,238.24
2022-09-04T04:54:15.845Z,238.93
2022-09-04T04:55:15.927Z,238.59
2022-09-04T04:56:16.025Z,240.49
2022-09-04T04:57:16.108Z,236.37
2022-09-04T04:58:16.149Z,239.28
2022-09-04T04:59:16.231Z,237.22
2022-09-04T05:00:16.334Z,240.32
2022-09-04T05:01:16.472Z,241.02
2022-09-04T05:02:16.550Z,240.67
2022-09-04T05:03:16.535Z,241.55
2022-09-04T05:04:16.613Z,240.49
2022-09-04T05:05:16.692Z,239.97
2022-09-04T05:06:16.789Z,239.97
2022-09-04T05:07:16.872Z,235.86
2022-09-04T05:08:16.984Z,236.37
2022-09-04T05:09:17.033Z,239.45
2022-09-04T05:10:17.141Z,237.22
2022-09-04T05:11:17.210Z,234.19
2022-09-04T05:12:17.320Z,235.69
2022-09-04T05:13:17.378Z,232.38
2022-09-04T05:14:17.488Z,235.19
2022-09-04T05:15:17.578Z,233.70
2022-09-04T05:16:19.088Z,235.36
2022-09-04T05:17:17.728Z,236.54
2022-09-04T05:18:17.832Z,231.73
2022-09-04T05:19:17.850Z,231.57
2022-09-04T05:20:17.924Z,230.44
2022-09-04T05:21:18.026Z,229.16
2022-09-04T05:22:18.077Z,227.90
2022-09-04T05:23:18.178Z,229.16
2022-09-04T05:24:18.230Z,225.56
2022-09-04T05:25:18.312Z,229.96
2022-09-04T05:26:18.378Z,228.68
2022-09-04T05:27:18.489Z,226.02
2022-09-04T05:28:18.619Z,222.53
2022-09-04T05:29:18.633Z,226.33
2022-09-04T05:30:18.715Z,226.18
2022-09-04T05:31:18.882Z,226.18
2022-09-04T05:32:18.871Z,224.64
2022-09-04T05:33:18.932Z,220.74
2022-09-04T05:34:19.002Z,220.30
2022-09-04T05:35:19.067Z,224.79
2022-09-04T05:36:19.162Z,223.73
2022-09-04T05:37:19.275Z,222.08
2022-09-04T05:38:19.293Z,221.18
2022-09-04T05:39:19.405Z,221.63
2022-09-04T05:40:19.470Z,221.78
2022-09-04T05:41:19.570Z,219.86
2022-09-04T05:42:19.638Z,220.74
2022-09-04T05:43:19.662Z,218.70
2022-09-04T05:44:19.738Z,221.18
2022-09-04T05:45:19.830Z,218.99
2022-09-04T05:46:19.938Z,218.70
2022-09-04T05:47:19.972Z,218.99
2022-09-04T05:48:20.105Z,218.70
2022-09-04T05:49:20.128Z,219.13
2022-09-04T05:50:21.355Z,219.42
2022-09-04T05:51:20.299Z,216.98
2022-09-04T05:52:20.397Z,218.55
2022-09-04T05:53:20.418Z,219.28
2022-09-04T05:54:20.521Z,216.69
2022-09-04T05:55:20.652Z,213.61
2022-09-04T05:56:20.676Z,216.98
2022-09-04T05:57:20.773Z,215.28
2022-09-04T05:58:20.948Z,216.12
2022-09-04T05:59:20.928Z,216.55
2022-09-04T06:00:21.025Z,215.56
2022-09-04T06:01:21.157Z,215.56
2022-09-04T06:02:21.289Z,214.86
2022-09-04T06:03:21.333Z,212.51
2022-09-04T06:04:21.319Z,216.12
2022-09-04T06:05:21.404Z,215.42
2022-09-04T06:06:21.485Z,213.61
2022-09-04T06:07:21.587Z,212.38
2022-09-04T06:08:26.449Z,214.16
2022-09-04T06:09:21.766Z,213.61
2022-09-04T06:10:21.813Z,212.92
2022-09-04T06:11:21.899Z,213.20
2022-09-04T06:12:22.013Z,212.92
2022-09-04T06:13:22.128Z,213.75
2022-09-04T06:14:22.169Z,213.47
2022-09-04T06:15:22.242Z,213.47
2022-09-04T06:16:22.381Z,214.02
2022-09-04T06:17:22.419Z,213.89
2022-09-04T06:18:22.536Z,213.34
2022-09-04T06:19:22.544Z,213.34
2022-09-04T06:20:22.640Z,212.92
2022-09-04T06:21:22.726Z,211.97
2022-09-04T06:22:22.807Z,211.56
2022-09-04T06:23:22.879Z,212.79
2022-09-04T06:24:22.973Z,212.24
2022-09-04T06:25:23.504Z,212.51
2022-09-04T06:26:23.141Z,209.81
2022-09-04T06:27:23.214Z,213.47
2022-09-04T06:28:23.380Z,212.51
2022-09-04T06:29:23.361Z,211.02
2022-09-04T06:30:23.506Z,212.38
2022-09-04T06:31:23.568Z,211.02
2022-09-04T06:32:23.645Z,211.70
2022-09-04T06:33:23.675Z,211.02
2022-09-04T06:34:23.777Z,211.29
2022-09-04T06:35:23.913Z,210.48
2022-09-04T06:36:23.926Z,210.62
2022-09-04T06:37:24.030Z,210.75
2022-09-04T06:38:24.203Z,209.41
2022-09-04T06:39:24.267Z,211.42
2022-09-04T06:40:24.261Z,211.70
2022-09-04T06:41:24.342Z,211.56
2022-09-04T06:42:24.486Z,210.35
2022-09-04T06:43:24.494Z,210.08
2022-09-04T06:44:24.582Z,209.02
2022-09-04T06:45:24.677Z,209.55
2022-09-04T06:46:24.826Z,209.28
2022-09-04T06:47:24.865Z,212.38
2022-09-04T06:48:25.059Z,211.02
2022-09-04T06:49:24.979Z,210.21
2022-09-04T06:50:25.078Z,210.35
2022-09-04T06:51:25.144Z,210.75
2022-09-04T06:52:25.224Z,211.02
2022-09-04T06:53:25.304Z,210.88
2022-09-04T06:54:25.373Z,211.15
2022-09-04T06:55:25.430Z,210.08
2022-09-04T06:56:25.543Z,210.75
2022-09-04T06:57:25.593Z,209.41
2022-09-04T06:58:25.745Z,209.02
2022-09-04T06:59:25.800Z,209.41
2022-09-04T07:00:25.869Z,209.15
2022-09-04T07:01:26.092Z,209.02
2022-09-04T07:02:26.120Z,209.68
2022-09-04T07:03:26.070Z,209.28
2022-09-04T07:04:26.159Z,209.15
2022-09-04T07:05:26.328Z,210.08
2022-09-04T07:06:26.357Z,208.49
2022-09-04T07:07:26.427Z,209.41
2022-09-04T07:08:26.570Z,209.15
2022-09-04T07:09:26.631Z,205.38
2022-09-04T07:10:26.671Z,208.10
2022-09-04T07:11:26.762Z,208.10
2022-09-04T07:12:26.902Z,206.93
2022-09-04T07:13:26.945Z,204.87
2022-09-04T07:14:27.029Z,207.97
2022-09-04T07:15:27.147Z,206.54
2022-09-04T07:16:27.197Z,207.97
2022-09-04T07:17:27.263Z,207.44
2022-09-04T07:18:27.325Z,207.97
2022-09-04T07:19:27.411Z,207.31
2022-09-04T07:20:27.501Z,206.79
2022-09-04T07:21:27.763Z,206.67
2022-09-04T07:22:27.667Z,205.38
2022-09-04T07:23:27.709Z,206.54
2022-09-04T07:24:27.810Z,205.89
2022-09-04T07:25:27.930Z,205.38
2022-09-04T07:26:27.989Z,206.67
2022-09-04T07:27:28.102Z,206.02
2022-09-04T07:28:28.116Z,206.79
2022-09-04T07:29:28.204Z,206.15
2022-09-04T07:30:28.344Z,206.93
2022-09-04T07:31:28.466Z,205.51
2022-09-04T07:32:28.460Z,205.51
2022-09-04T07:33:28.550Z,205.89
2022-09-04T07:34:28.678Z,202.99
2022-09-04T07:35:28.746Z,206.79
2022-09-04T07:36:29.881Z,206.41
2022-09-04T07:37:28.867Z,204.75
2022-09-04T07:38:28.960Z,206.02
2022-09-04T07:39:29.079Z,206.41
2022-09-04T07:40:30.695Z,206.02
2022-09-04T07:41:29.185Z,205.64
2022-09-04T07:42:30.857Z,204.87
2022-09-04T07:43:29.363Z,206.41
2022-09-04T07:44:29.432Z,205.77
2022-09-04T07:45:29.608Z,207.05
2022-09-04T07:46:29.684Z,205.64
2022-09-04T07:47:29.665Z,206.41
2022-09-04T07:48:29.796Z,205.89
2022-09-04T07:49:29.975Z,204.87
2022-09-04T07:50:29.926Z,205.89
2022-09-04T07:51:30.006Z,206.15
2022-09-04T07:52:30.092Z,205.51
2022-09-04T07:53:30.174Z,205.89
2022-09-04T07:54:30.285Z,207.05
2022-09-04T07:55:30.354Z,205.51
2022-09-04T07:56:30.413Z,206.02
2022-09-04T07:57:30.559Z,203.86
2022-09-04T07:58:30.582Z,205.64
2022-09-04T07:59:30.646Z,205.38
2022-09-04T08:00:30.765Z,204.62
2022-09-04T08:01:30.812Z,205.77
2022-09-04T08:02:30.875Z,205.26
2022-09-04T08:03:30.985Z,206.28
2022-09-04T08:04:31.112Z,204.49
2022-09-04T08:05:31.143Z,204.75
2022-09-04T08:06:31.273Z,204.49
2022-09-04T08:07:31.291Z,205.77
2022-09-04T08:08:31.382Z,204.75
2022-09-04T08:09:31.441Z,204.75
2022-09-04T08:10:31.574Z,205.51
2022-09-04T08:11:31.606Z,205.64
2022-09-04T08:12:31.662Z,205.64
2022-09-04T08:13:31.755Z,204.37
2022-09-04T08:14:31.800Z,206.67
2022-09-04T08:15:31.937Z,205.89
2022-09-04T08:16:31.977Z,205.77
2022-09-04T08:17:32.027Z,206.02
2022-09-04T08:18:32.109Z,205.89
2022-09-04T08:19:32.199Z,205.77
2022-09-04T08:20:33.076Z,204.49
2022-09-04T08:21:32.362Z,206.28
2022-09-04T08:22:32.445Z,204.87
2022-09-04T08:23:32.511Z,206.41
2022-09-04T08:24:32.583Z,205.51
2022-09-04T08:25:32.699Z,205.77
2022-09-04T08:26:32.771Z,205.89
2022-09-04T08:27:32.829Z,207.31
2022-09-04T08:28:32.924Z,206.02
2022-09-04T08:29:33.039Z,205.26
2022-09-04T08:30:33.173Z,206.28
2022-09-04T08:31:33.122Z,206.41
2022-09-04T08:32:38.318Z,206.54
2022-09-04T08:33:33.335Z,206.15
2022-09-04T08:34:33.399Z,208.10
2022-09-04T08:35:33.515Z,206.93
2022-09-04T08:36:33.588Z,206.41
2022-09-04T08:37:33.636Z,207.18
2022-09-04T08:38:33.721Z,206.67
2022-09-04T08:39:33.866Z,206.79
2022-09-04T08:40:33.893Z,208.89
2022-09-04T08:41:33.916Z,207.84
2022-09-04T08:42:34.023Z,208.10
2022-09-04T08:43:34.087Z,207.31
2022-09-04T08:44:34.157Z,207.71
2022-09-04T08:45:35.106Z,206.79
2022-09-04T08:46:34.368Z,207.57
2022-09-04T08:47:34.350Z,208.62
2022-09-04T08:48:34.468Z,206.93
2022-09-04T08:49:34.499Z,208.10
2022-09-04T08:50:34.596Z,207.44
2022-09-04T08:51:34.660Z,208.62
2022-09-04T08:52:34.750Z,208.49
2022-09-04T08:53:34.802Z,207.71
2022-09-04T08:54:34.890Z,208.49
2022-09-04T08:55:34.999Z,207.44
2022-09-04T08:56:35.071Z,210.35
2022-09-04T08:57:35.173Z,209.28
2022-09-04T08:58:35.270Z,209.28
2022-09-04T08:59:35.319Z,209.41
2022-09-04T09:00:35.425Z,209.02
2022-09-04T09:01:35.635Z,209.28
2022-09-04T09:02:35.610Z,209.81
2022-09-04T09:03:35.667Z,210.21
2022-09-04T09:04:35.777Z,209.95
2022-09-04T09:05:35.867Z,209.28
2022-09-04T09:06:35.934Z,208.23
2022-09-04T09:07:36.022Z,208.36
2022-09-04T09:08:36.106Z,209.55
2022-09-04T09:09:36.204Z,207.71
2022-09-04T09:10:36.265Z,208.62
2022-09-04T09:11:36.333Z,207.57
2022-09-04T09:12:41.026Z,208.10
2022-09-04T09:13:36.488Z,208.10
2022-09-04T09:14:36.584Z,208.23
2022-09-04T09:15:36.699Z,208.49
2022-09-04T09:16:36.782Z,209.02
2022-09-04T09:17:36.811Z,209.28
2022-09-04T09:18:36.891Z,208.10
2022-09-04T09:19:36.965Z,208.36
2022-09-04T09:20:37.055Z,209.41
2022-09-04T09:21:37.167Z,208.36
2022-09-04T09:22:37.226Z,208.62
2022-09-04T09:23:37.277Z,209.55
2022-09-04T09:24:37.368Z,208.23
2022-09-04T09:25:41.027Z,207.84
2022-09-04T09:26:37.530Z,208.36
2022-09-04T09:27:37.619Z,209.02
2022-09-04T09:28:37.679Z,209.41
2022-09-04T09:29:37.785Z,207.84
2022-09-04T09:30:37.905Z,208.36
2022-09-04T09:31:37.939Z,208.62
2022-09-04T09:32:37.998Z,209.15
2022-09-04T09:33:38.072Z,209.15
2022-09-04T09:34:38.169Z,208.75
2022-09-04T09:35:38.250Z,209.02
2022-09-04T09:36:38.297Z,209.55
2022-09-04T09:37:38.408Z,209.81
2022-09-04T09:38:38.473Z,209.28
2022-09-04T09:39:38.607Z,207.57
2022-09-04T09:40:38.622Z,209.02
2022-09-04T09:41:38.784Z,208.89
2022-09-04T09:42:38.811Z,208.36
2022-09-04T09:43:38.871Z,209.68
2022-09-04T09:44:38.970Z,209.68
2022-09-04T09:45:39.141Z,209.68
2022-09-04T09:46:39.104Z,208.49
2022-09-04T09:47:39.179Z,208.89
2022-09-04T09:48:39.271Z,209.28
2022-09-04T09:49:39.366Z,209.28
2022-09-04T09:50:39.413Z,209.81
2022-09-04T09:51:39.539Z,209.15
2022-09-04T09:52:39.595Z,209.68
2022-09-04T09:53:41.809Z,210.75
2022-09-04T09:54:39.854Z,209.55
2022-09-04T09:55:39.861Z,209.28
2022-09-04T09:56:39.893Z,209.81
2022-09-04T09:57:39.968Z,208.89
2022-09-04T09:58:40.042Z,209.28
2022-09-04T09:59:40.189Z,209.68
2022-09-04T10:00:40.229Z,208.75
2022-09-04T10:01:40.391Z,208.89
2022-09-04T10:02:40.451Z,209.41
2022-09-04T10:03:40.489Z,208.89
2022-09-04T10:04:40.583Z,209.95
2022-09-04T10:05:40.655Z,209.41
2022-09-04T10:06:40.712Z,209.02
2022-09-04T10:07:40.794Z,208.89
2022-09-04T10:08:40.861Z,208.62
2022-09-04T10:09:40.940Z,209.15
2022-09-04T10:10:41.054Z,208.89
2022-09-04T10:11:41.124Z,208.75
2022-09-04T10:12:41.168Z,209.02
2022-09-04T10:13:41.275Z,209.15
2022-09-04T10:14:41.328Z,209.28
2022-09-04T10:15:41.407Z,208.49
2022-09-04T10:16:41.589Z,208.23
2022-09-04T10:17:41.580Z,207.44
2022-09-04T10:18:41.695Z,208.89
2022-09-04T10:19:41.719Z,208.36
2022-09-04T10:20:41.810Z,210.08
2022-09-04T10:21:41.890Z,208.10
2022-09-04T10:22:41.948Z,208.89
2022-09-04T10:23:42.072Z,208.23
2022-09-04T10:24:42.118Z,207.84
2022-09-04T10:25:42.206Z,208.49
2022-09-04T10:26:42.283Z,207.97
2022-09-04T10:27:44.107Z,208.62
2022-09-04T10:28:42.491Z,208.89
2022-09-04T10:29:42.549Z,208.62
2022-09-04T10:30:42.663Z,209.41
2022-09-04T10:31:42.692Z,208.36
2022-09-04T10:32:42.792Z,208.23
2022-09-04T10:33:42.891Z,207.31
2022-09-04T10:34:42.941Z,208.89
2022-09-04T10:35:43.074Z,208.49
2022-09-04T10:36:43.086Z,208.23
2022-09-04T10:37:43.198Z,207.05
2022-09-04T10:38:43.256Z,207.97
2022-09-04T10:39:43.391Z,207.97
2022-09-04T10:40:46.945Z,207.57
2022-09-04T10:41:43.491Z,208.10
2022-09-04T10:42:43.560Z,207.05
2022-09-04T10:43:43.640Z,208.36
2022-09-04T10:44:43.719Z,207.84
2022-09-04T10:45:43.976Z,207.31
2022-09-04T10:46:43.867Z,207.31
2022-09-04T10:47:43.954Z,207.31
2022-09-04T10:48:44.058Z,207.31
2022-09-04T10:49:44.125Z,207.18
2022-09-04T10:50:44.203Z,208.10
2022-09-04T10:51:44.288Z,205.64
2022-09-04T10:52:44.356Z,206.15
2022-09-04T10:53:44.469Z,208.49
2022-09-04T10:54:44.507Z,208.23
2022-09-04T10:55:44.595Z,208.10
2022-09-04T10:56:44.646Z,206.93
2022-09-04T10:57:44.761Z,206.93
2022-09-04T10:58:44.822Z,206.54
2022-09-04T10:59:44.891Z,207.18
2022-09-04T11:00:45.016Z,206.93
2022-09-04T11:01:45.060Z,207.05
2022-09-04T11:02:45.247Z,206.67
2022-09-04T11:03:45.249Z,207.71
2022-09-04T11:04:45.293Z,207.84
2022-09-04T11:05:45.376Z,206.79
2022-09-04T11:06:45.461Z,207.97
2022-09-04T11:07:45.553Z,206.67
2022-09-04T11:08:45.633Z,206.93
2022-09-04T11:09:45.719Z,206.67
2022-09-04T11:10:45.794Z,207.71
2022-09-04T11:11:45.858Z,206.54
2022-09-04T11:12:45.930Z,207.05
2022-09-04T11:13:50.668Z,208.10
2022-09-04T11:14:46.110Z,206.67
2022-09-04T11:15:46.171Z,207.18
2022-09-04T11:16:46.380Z,206.79
2022-09-04T11:17:46.315Z,207.18
2022-09-04T11:18:46.409Z,206.93
2022-09-04T11:19:46.480Z,206.79
2022-09-04T11:20:46.550Z,207.05
2022-09-04T11:21:46.631Z,209.02
2022-09-04T11:22:46.716Z,206.67
2022-09-04T11:23:46.935Z,206.79
2022-09-04T11:24:46.878Z,208.36
2022-09-04T11:25:46.968Z,206.28
2022-09-04T11:26:47.025Z,206.93
2022-09-04T11:27:47.104Z,207.31
2022-09-04T11:28:47.193Z,207.84
2022-09-04T11:29:47.284Z,207.18
2022-09-04T11:30:48.056Z,206.02
2022-09-04T11:31:47.477Z,206.93
2022-09-04T11:32:47.524Z,206.67
2022-09-04T11:33:47.617Z,206.02
2022-09-04T11:34:47.669Z,206.79
2022-09-04T11:35:47.771Z,206.41
2022-09-04T11:36:47.854Z,205.64
2022-09-04T11:37:47.903Z,207.84
2022-09-04T11:38:47.980Z,206.02
2022-09-04T11:39:48.072Z,206.15
2022-09-04T11:40:48.126Z,206.41
2022-09-04T11:41:48.203Z,207.44
2022-09-04T11:42:48.308Z,205.77
2022-09-04T11:43:48.376Z,206.93
2022-09-04T11:44:48.451Z,206.28
2022-09-04T11:45:48.560Z,205.77
2022-09-04T11:46:48.589Z,205.26
2022-09-04T11:47:48.680Z,205.51
2022-09-04T11:48:48.775Z,205.13
2022-09-04T11:49:48.882Z,204.87
2022-09-04T11:50:48.929Z,204.87
2022-09-04T11:51:49.028Z,204.62
2022-09-04T11:52:49.094Z,204.75
2022-09-04T11:53:49.195Z,205.00
2022-09-04T11:54:49.260Z,204.11
2022-09-04T11:55:52.634Z,204.75
2022-09-04T11:56:49.437Z,203.86
2022-09-04T11:57:49.498Z,204.11
2022-09-04T11:58:49.671Z,203.74
2022-09-04T11:59:49.728Z,203.61
2022-09-04T12:00:49.762Z,205.77
2022-09-04T12:01:49.870Z,204.49
2022-09-04T12:02:49.908Z,203.99
2022-09-04T12:03:50.022Z,203.24
2022-09-04T12:04:50.062Z,203.74
2022-09-04T12:05:50.145Z,205.00
2022-09-04T12:06:50.289Z,204.75
2022-09-04T12:07:50.359Z,202.86
2022-09-04T12:08:50.369Z,202.12
2022-09-04T12:09:50.454Z,203.74
2022-09-04T12:10:50.554Z,203.24
2022-09-04T12:11:50.803Z,202.61
2022-09-04T12:12:50.697Z,203.11
2022-09-04T12:13:50.787Z,203.36
2022-09-04T12:14:50.884Z,203.49
2022-09-04T12:15:50.938Z,202.86
2022-09-04T12:16:51.062Z,203.11
2022-09-04T12:17:51.147Z,203.99
2022-09-04T12:18:51.184Z,203.11
2022-09-04T12:19:51.271Z,202.74
2022-09-04T12:20:51.337Z,203.11
2022-09-04T12:21:51.428Z,202.74
2022-09-04T12:22:51.523Z,204.49
2022-09-04T12:23:51.596Z,202.99
2022-09-04T12:24:51.649Z,202.99
2022-09-04T12:25:51.722Z,201.62
2022-09-04T12:26:53.614Z,202.86
2022-09-04T12:27:51.935Z,202.61
2022-09-04T12:28:52.001Z,202.99
2022-09-04T12:29:52.078Z,201.99